WXM80 ListenWXM80 Stop

You find our weather info also at:

UK Metoffice

WeatherCloud

Weather Underground

Northeastern Weather Network

AWEKAS

Citizen Weather Observer Program (CWOP)

HAMweather, WeatherForYou, PWS Weather


Weather Underground History page Text

Daily Summary for May 1, 2017 Units:  Both    English   Metric
« Previous Day
Next Day »
Daily Weekly Monthly Yearly Custom
  High: Low: Average:
Temperature: 72.1 °F /  22.3 °C 48.4 °F /  9.1 °C 56.4 °F /  13.6 °C
Dew Point: 64.4 °F /  18 °C 44.9 °F /  7.2 °C 53.2 °F /  11.8 °C
Humidity: 98 % 74 % 90 %
Wind Speed: 9.6 mph /  15.4 km/h - 3.1 mph /  5 km/h
Wind Gust: 20.0 mph /  32.2 km/h - -
Wind:- - ESE
Pressure: 30.14 in /  1020.5 hPa 29.63 in /  1003.3 hPa -
Precipitation: 0.01 in /  0.25 mm    
Historical Graphs
 
 
Tabular Data for May 1, 2017
Time Temperature Dew Point Pressure Wind Wind Speed Wind Gust Humidity Rainfall Rate (Hourly)
00:01 50.8 °F /  10.4 °C 44.9 °F /  7.2 °C 30.14 in /  1020.5 hPa ENE 1.0 mph /  1.6 km/h 1.2 mph /  1.9 km/h 80 % 0.00 in /  0 mm
00:06 50.9 °F /  10.5 °C 44.9 °F /  7.2 °C 30.14 in /  1020.5 hPa ENE 2.2 mph /  3.5 km/h 3.5 mph /  5.6 km/h 80 % 0.00 in /  0 mm
00:11 50.9 °F /  10.5 °C 45.3 °F /  7.4 °C 30.14 in /  1020.5 hPa ENE 2.0 mph /  3.2 km/h 2.3 mph /  3.7 km/h 81 % 0.00 in /  0 mm
00:17 50.8 °F /  10.4 °C 45.2 °F /  7.3 °C 30.14 in /  1020.5 hPa ENE 1.2 mph /  1.9 km/h 3.5 mph /  5.6 km/h 81 % 0.00 in /  0 mm
00:22 50.8 °F /  10.4 °C 45.2 °F /  7.3 °C 30.14 in /  1020.5 hPa East 1.4 mph /  2.3 km/h 4.6 mph /  7.4 km/h 81 % 0.00 in /  0 mm
00:27 50.8 °F /  10.4 °C 45.2 °F /  7.3 °C 30.13 in /  1020.2 hPa East 1.0 mph /  1.6 km/h 2.3 mph /  3.7 km/h 81 % 0.00 in /  0 mm
00:32 50.7 °F /  10.4 °C 45.4 °F /  7.4 °C 30.13 in /  1020.2 hPa East 2.9 mph /  4.7 km/h 4.6 mph /  7.4 km/h 82 % 0.00 in /  0 mm
00:37 50.8 °F /  10.4 °C 45.5 °F /  7.5 °C 30.13 in /  1020.2 hPa East 1.3 mph /  2.1 km/h 3.0 mph /  4.8 km/h 82 % 0.00 in /  0 mm
00:42 50.7 °F /  10.4 °C 45.7 °F /  7.6 °C 30.13 in /  1020.2 hPa ESE 2.3 mph /  3.7 km/h 5.0 mph /  8 km/h 83 % 0.00 in /  0 mm
00:47 50.7 °F /  10.4 °C 46.0 °F /  7.8 °C 30.13 in /  1020.2 hPa ESE 2.5 mph /  4 km/h 3.5 mph /  5.6 km/h 84 % 0.00 in /  0 mm
00:52 50.6 °F /  10.3 °C 45.9 °F /  7.7 °C 30.13 in /  1020.2 hPa East 1.7 mph /  2.7 km/h 3.5 mph /  5.6 km/h 84 % 0.00 in /  0 mm
00:57 50.5 °F /  10.3 °C 45.8 °F /  7.7 °C 30.13 in /  1020.2 hPa ESE 0.5 mph /  0.8 km/h 2.3 mph /  3.7 km/h 84 % 0.00 in /  0 mm
01:02 50.5 °F /  10.3 °C 46.2 °F /  7.9 °C 30.12 in /  1019.9 hPa ESE 2.2 mph /  3.5 km/h 3.0 mph /  4.8 km/h 85 % 0.00 in /  0 mm
01:07 50.5 °F /  10.3 °C 46.5 °F /  8.1 °C 30.12 in /  1019.9 hPa ESE 1.7 mph /  2.7 km/h 3.5 mph /  5.6 km/h 86 % 0.00 in /  0 mm
01:12 50.4 °F /  10.2 °C 46.4 °F /  8 °C 30.11 in /  1019.5 hPa ESE 2.6 mph /  4.2 km/h 3.5 mph /  5.6 km/h 86 % 0.00 in /  0 mm
01:18 50.3 °F /  10.2 °C 46.6 °F /  8.1 °C 30.11 in /  1019.5 hPa East 3.1 mph /  5 km/h 5.0 mph /  8 km/h 87 % 0.00 in /  0 mm
01:23 50.2 °F /  10.1 °C 46.5 °F /  8.1 °C 30.11 in /  1019.5 hPa ENE 1.5 mph /  2.4 km/h 3.5 mph /  5.6 km/h 87 % 0.00 in /  0 mm
01:28 50.1 °F /  10.1 °C 46.7 °F /  8.2 °C 30.10 in /  1019.2 hPa SE 1.0 mph /  1.6 km/h 3.5 mph /  5.6 km/h 88 % 0.00 in /  0 mm
01:33 50.0 °F /  10 °C 46.6 °F /  8.1 °C 30.10 in /  1019.2 hPa East 1.3 mph /  2.1 km/h 4.6 mph /  7.4 km/h 88 % 0.00 in /  0 mm
01:38 49.8 °F /  9.9 °C 46.7 °F /  8.2 °C 30.09 in /  1018.8 hPa East 2.2 mph /  3.5 km/h 3.5 mph /  5.6 km/h 89 % 0.00 in /  0 mm
01:43 49.7 °F /  9.8 °C 46.6 °F /  8.1 °C 30.10 in /  1019.2 hPa ENE 1.7 mph /  2.7 km/h 3.0 mph /  4.8 km/h 89 % 0.00 in /  0 mm
01:48 49.6 °F /  9.8 °C 46.8 °F /  8.2 °C 30.10 in /  1019.2 hPa East 2.0 mph /  3.2 km/h 3.5 mph /  5.6 km/h 90 % 0.00 in /  0 mm
01:53 49.5 °F /  9.7 °C 46.7 °F /  8.2 °C 30.09 in /  1018.8 hPa ENE 1.4 mph /  2.3 km/h 3.0 mph /  4.8 km/h 90 % 0.00 in /  0 mm
01:58 49.4 °F /  9.7 °C 46.9 °F /  8.3 °C 30.10 in /  1019.2 hPa ENE 1.9 mph /  3.1 km/h 3.5 mph /  5.6 km/h 91 % 0.00 in /  0 mm
02:03 49.3 °F /  9.6 °C 46.8 °F /  8.2 °C 30.09 in /  1018.8 hPa ENE 2.2 mph /  3.5 km/h 3.5 mph /  5.6 km/h 91 % 0.00 in /  0 mm
02:08 49.2 °F /  9.6 °C 47.0 °F /  8.3 °C 30.08 in /  1018.5 hPa ENE 1.9 mph /  3.1 km/h 3.5 mph /  5.6 km/h 92 % 0.00 in /  0 mm
02:09 49.2 °F /  9.6 °C 47.0 °F /  8.3 °C 30.08 in /  1018.5 hPa ENE 1.7 mph /  2.7 km/h 3.5 mph /  5.6 km/h 92 % 0.00 in /  0 mm
02:14 49.2 °F /  9.6 °C 47.0 °F /  8.3 °C 30.08 in /  1018.5 hPa ENE 1.4 mph /  2.3 km/h 3.0 mph /  4.8 km/h 92 % 0.00 in /  0 mm
02:19 49.0 °F /  9.4 °C 46.8 °F /  8.2 °C 30.08 in /  1018.5 hPa ENE 1.8 mph /  2.9 km/h 3.5 mph /  5.6 km/h 92 % 0.00 in /  0 mm
02:24 49.0 °F /  9.4 °C 47.1 °F /  8.4 °C 30.07 in /  1018.2 hPa ENE 2.2 mph /  3.5 km/h 2.3 mph /  3.7 km/h 93 % 0.00 in /  0 mm
02:29 48.9 °F /  9.4 °C 47.0 °F /  8.3 °C 30.07 in /  1018.2 hPa ENE 1.9 mph /  3.1 km/h 3.5 mph /  5.6 km/h 93 % 0.00 in /  0 mm
02:34 48.9 °F /  9.4 °C 47.2 °F /  8.4 °C 30.07 in /  1018.2 hPa East 1.9 mph /  3.1 km/h 3.5 mph /  5.6 km/h 94 % 0.00 in /  0 mm
02:39 48.9 °F /  9.4 °C 47.2 °F /  8.4 °C 30.07 in /  1018.2 hPa ENE 1.5 mph /  2.4 km/h 3.5 mph /  5.6 km/h 94 % 0.00 in /  0 mm
02:45 48.8 °F /  9.3 °C 47.2 °F /  8.4 °C 30.07 in /  1018.2 hPa ENE 2.0 mph /  3.2 km/h 3.0 mph /  4.8 km/h 94 % 0.00 in /  0 mm
02:50 48.8 °F /  9.3 °C 47.2 °F /  8.4 °C 30.07 in /  1018.2 hPa ENE 2.1 mph /  3.4 km/h 3.5 mph /  5.6 km/h 94 % 0.00 in /  0 mm
02:55 48.8 °F /  9.3 °C 47.2 °F /  8.4 °C 30.07 in /  1018.2 hPa ENE 2.1 mph /  3.4 km/h 3.5 mph /  5.6 km/h 94 % 0.00 in /  0 mm
03:00 48.8 °F /  9.3 °C 47.2 °F /  8.4 °C 30.07 in /  1018.2 hPa ENE 1.6 mph /  2.6 km/h 3.5 mph /  5.6 km/h 94 % 0.00 in /  0 mm
03:05 48.8 °F /  9.3 °C 47.2 °F /  8.4 °C 30.07 in /  1018.2 hPa NE 1.4 mph /  2.3 km/h 3.5 mph /  5.6 km/h 94 % 0.00 in /  0 mm
03:10 48.7 °F /  9.3 °C 47.3 °F /  8.5 °C 30.06 in /  1017.8 hPa ENE 1.8 mph /  2.9 km/h 3.5 mph /  5.6 km/h 95 % 0.00 in /  0 mm
03:15 48.7 °F /  9.3 °C 47.3 °F /  8.5 °C 30.05 in /  1017.5 hPa ENE 2.2 mph /  3.5 km/h 3.5 mph /  5.6 km/h 95 % 0.00 in /  0 mm
03:20 48.7 °F /  9.3 °C 47.3 °F /  8.5 °C 30.05 in /  1017.5 hPa ENE 1.8 mph /  2.9 km/h 3.5 mph /  5.6 km/h 95 % 0.00 in /  0 mm
03:25 48.7 °F /  9.3 °C 47.3 °F /  8.5 °C 30.04 in /  1017.2 hPa East 1.4 mph /  2.3 km/h 3.5 mph /  5.6 km/h 95 % 0.00 in /  0 mm
03:30 48.7 °F /  9.3 °C 47.3 °F /  8.5 °C 30.05 in /  1017.5 hPa ENE 2.4 mph /  3.9 km/h 3.5 mph /  5.6 km/h 95 % 0.00 in /  0 mm
03:35 48.6 °F /  9.2 °C 47.2 °F /  8.4 °C 30.04 in /  1017.2 hPa ENE 2.3 mph /  3.7 km/h 3.5 mph /  5.6 km/h 95 % 0.00 in /  0 mm
03:40 48.6 °F /  9.2 °C 47.2 °F /  8.4 °C 30.04 in /  1017.2 hPa ENE 1.3 mph /  2.1 km/h 3.5 mph /  5.6 km/h 95 % 0.00 in /  0 mm
03:45 48.6 °F /  9.2 °C 47.2 °F /  8.4 °C 30.04 in /  1017.2 hPa ENE 1.0 mph /  1.6 km/h 5.0 mph /  8 km/h 95 % 0.00 in /  0 mm
03:51 48.5 °F /  9.2 °C 47.1 °F /  8.4 °C 30.04 in /  1017.2 hPa ENE 1.0 mph /  1.6 km/h 3.0 mph /  4.8 km/h 95 % 0.00 in /  0 mm
03:55 48.5 °F /  9.2 °C 47.1 °F /  8.4 °C 30.04 in /  1017.2 hPa ENE 0.9 mph /  1.4 km/h 2.3 mph /  3.7 km/h 95 % 0.00 in /  0 mm
04:00 48.5 °F /  9.2 °C 47.1 °F /  8.4 °C 30.04 in /  1017.2 hPa ENE 2.4 mph /  3.9 km/h 6.9 mph /  11.1 km/h 95 % 0.00 in /  0 mm
04:05 48.5 °F /  9.2 °C 47.1 °F /  8.4 °C 30.03 in /  1016.8 hPa ENE 3.0 mph /  4.8 km/h 7.0 mph /  11.3 km/h 95 % 0.00 in /  0 mm
04:10 48.4 °F /  9.1 °C 47.3 °F /  8.5 °C 30.03 in /  1016.8 hPa ENE 3.3 mph /  5.3 km/h 5.0 mph /  8 km/h 96 % 0.00 in /  0 mm
04:15 48.4 °F /  9.1 °C 47.3 °F /  8.5 °C 30.03 in /  1016.8 hPa ENE 2.0 mph /  3.2 km/h 5.0 mph /  8 km/h 96 % 0.00 in /  0 mm
04:21 48.4 °F /  9.1 °C 47.3 °F /  8.5 °C 30.02 in /  1016.5 hPa ENE 2.0 mph /  3.2 km/h 6.0 mph /  9.7 km/h 96 % 0.00 in /  0 mm
04:26 48.4 °F /  9.1 °C 47.3 °F /  8.5 °C 30.02 in /  1016.5 hPa ENE 3.0 mph /  4.8 km/h 5.0 mph /  8 km/h 96 % 0.00 in /  0 mm
04:31 48.4 °F /  9.1 °C 47.3 °F /  8.5 °C 30.02 in /  1016.5 hPa ENE 3.0 mph /  4.8 km/h 7.0 mph /  11.3 km/h 96 % 0.00 in /  0 mm
04:36 48.4 °F /  9.1 °C 47.3 °F /  8.5 °C 30.02 in /  1016.5 hPa ENE 2.0 mph /  3.2 km/h 7.0 mph /  11.3 km/h 96 % 0.00 in /  0 mm
04:41 48.4 °F /  9.1 °C 47.3 °F /  8.5 °C 30.02 in /  1016.5 hPa ENE 2.0 mph /  3.2 km/h 4.0 mph /  6.4 km/h 96 % 0.00 in /  0 mm
04:45 48.5 °F /  9.2 °C 47.4 °F /  8.6 °C 30.01 in /  1016.1 hPa ENE 1.0 mph /  1.6 km/h 3.0 mph /  4.8 km/h 96 % 0.00 in /  0 mm
04:50 48.6 °F /  9.2 °C 47.5 °F /  8.6 °C 30.01 in /  1016.1 hPa East 1.0 mph /  1.6 km/h 3.0 mph /  4.8 km/h 96 % 0.00 in /  0 mm
04:55 48.6 °F /  9.2 °C 47.5 °F /  8.6 °C 30.01 in /  1016.1 hPa East 1.0 mph /  1.6 km/h 2.0 mph /  3.2 km/h 96 % 0.00 in /  0 mm
05:01 48.7 °F /  9.3 °C 47.6 °F /  8.7 °C 30.01 in /  1016.1 hPa East 1.6 mph /  2.6 km/h 2.3 mph /  3.7 km/h 96 % 0.00 in /  0 mm
05:06 48.8 °F /  9.3 °C 47.7 °F /  8.7 °C 30.00 in /  1015.8 hPa East 1.2 mph /  1.9 km/h 2.3 mph /  3.7 km/h 96 % 0.00 in /  0 mm
05:11 48.7 °F /  9.3 °C 47.6 °F /  8.7 °C 29.99 in /  1015.5 hPa East 1.2 mph /  1.9 km/h 2.3 mph /  3.7 km/h 96 % 0.00 in /  0 mm
05:16 48.7 °F /  9.3 °C 47.6 °F /  8.7 °C 29.99 in /  1015.5 hPa East 1.6 mph /  2.6 km/h 3.5 mph /  5.6 km/h 96 % 0.00 in /  0 mm
05:17 48.7 °F /  9.3 °C 47.6 °F /  8.7 °C 29.99 in /  1015.5 hPa East 0.5 mph /  0.8 km/h 2.3 mph /  3.7 km/h 96 % 0.00 in /  0 mm
05:22 48.7 °F /  9.3 °C 47.6 °F /  8.7 °C 30.00 in /  1015.8 hPa ENE 1.2 mph /  1.9 km/h 3.0 mph /  4.8 km/h 96 % 0.00 in /  0 mm
05:27 48.7 °F /  9.3 °C 47.6 °F /  8.7 °C 30.00 in /  1015.8 hPa ENE 0.4 mph /  0.6 km/h 2.3 mph /  3.7 km/h 96 % 0.00 in /  0 mm
05:32 48.7 °F /  9.3 °C 47.6 °F /  8.7 °C 30.00 in /  1015.8 hPa ENE 0.3 mph /  0.5 km/h 1.2 mph /  1.9 km/h 96 % 0.00 in /  0 mm
05:38 48.7 °F /  9.3 °C 47.6 °F /  8.7 °C 29.99 in /  1015.5 hPa ENE 0.9 mph /  1.4 km/h 1.2 mph /  1.9 km/h 96 % 0.00 in /  0 mm
05:43 48.7 °F /  9.3 °C 47.6 °F /  8.7 °C 29.99 in /  1015.5 hPa ENE 0.4 mph /  0.6 km/h 2.0 mph /  3.2 km/h 96 % 0.00 in /  0 mm
05:48 48.8 °F /  9.3 °C 48.0 °F /  8.9 °C 29.98 in /  1015.1 hPa ENE 0.1 mph /  0.2 km/h 1.2 mph /  1.9 km/h 97 % 0.00 in /  0 mm
05:53 48.8 °F /  9.3 °C 48.0 °F /  8.9 °C 29.98 in /  1015.1 hPa ENE 0.1 mph /  0.2 km/h 1.2 mph /  1.9 km/h 97 % 0.00 in /  0 mm
05:58 48.8 °F /  9.3 °C 48.0 °F /  8.9 °C 29.98 in /  1015.1 hPa Calm     97 % 0.00 in /  0 mm
06:03 48.8 °F /  9.3 °C 48.0 °F /  8.9 °C 29.98 in /  1015.1 hPa ENE 0.1 mph /  0.2 km/h 1.0 mph /  1.6 km/h 97 % 0.00 in /  0 mm
06:08 48.8 °F /  9.3 °C 48.0 °F /  8.9 °C 29.98 in /  1015.1 hPa ENE 1.4 mph /  2.3 km/h 2.3 mph /  3.7 km/h 97 % 0.00 in /  0 mm
06:13 48.8 °F /  9.3 °C 48.0 °F /  8.9 °C 29.98 in /  1015.1 hPa ENE 0.6 mph /  1 km/h 2.0 mph /  3.2 km/h 97 % 0.00 in /  0 mm
06:18 48.8 °F /  9.3 °C 48.0 °F /  8.9 °C 29.98 in /  1015.1 hPa ENE 1.2 mph /  1.9 km/h 3.5 mph /  5.6 km/h 97 % 0.00 in /  0 mm
06:23 48.9 °F /  9.4 °C 48.1 °F /  8.9 °C 29.98 in /  1015.1 hPa NE 1.5 mph /  2.4 km/h 2.3 mph /  3.7 km/h 97 % 0.00 in /  0 mm
06:28 48.9 °F /  9.4 °C 48.1 °F /  8.9 °C 29.98 in /  1015.1 hPa ENE 0.9 mph /  1.4 km/h 2.3 mph /  3.7 km/h 97 % 0.00 in /  0 mm
06:34 48.9 °F /  9.4 °C 48.1 °F /  8.9 °C 29.98 in /  1015.1 hPa ENE 0.3 mph /  0.5 km/h 1.2 mph /  1.9 km/h 97 % 0.00 in /  0 mm
06:39 49.0 °F /  9.4 °C 48.2 °F /  9 °C 29.98 in /  1015.1 hPa ENE 1.9 mph /  3.1 km/h 4.0 mph /  6.4 km/h 97 % 0.00 in /  0 mm
06:44 49.0 °F /  9.4 °C 48.2 °F /  9 °C 29.98 in /  1015.1 hPa ENE 2.7 mph /  4.3 km/h 5.8 mph /  9.3 km/h 97 % 0.00 in /  0 mm
06:49 49.0 °F /  9.4 °C 48.2 °F /  9 °C 29.98 in /  1015.1 hPa NE 2.3 mph /  3.7 km/h 4.6 mph /  7.4 km/h 97 % 0.00 in /  0 mm
06:54 49.1 °F /  9.5 °C 48.3 °F /  9.1 °C 29.98 in /  1015.1 hPa ENE 2.6 mph /  4.2 km/h 4.6 mph /  7.4 km/h 97 % 0.01 in /  0.25 mm
06:59 49.1 °F /  9.5 °C 48.3 °F /  9.1 °C 29.99 in /  1015.5 hPa ENE 1.4 mph /  2.3 km/h 3.5 mph /  5.6 km/h 97 % 0.01 in /  0.25 mm
07:04 49.1 °F /  9.5 °C 48.3 °F /  9.1 °C 29.98 in /  1015.1 hPa ENE 0.8 mph /  1.3 km/h 3.5 mph /  5.6 km/h 97 % 0.01 in /  0.25 mm
07:09 49.1 °F /  9.5 °C 48.3 °F /  9.1 °C 29.98 in /  1015.1 hPa NE 2.7 mph /  4.3 km/h 4.6 mph /  7.4 km/h 97 % 0.01 in /  0.25 mm
07:14 49.1 °F /  9.5 °C 48.3 °F /  9.1 °C 29.98 in /  1015.1 hPa ENE 1.0 mph /  1.6 km/h 3.5 mph /  5.6 km/h 97 % 0.01 in /  0.25 mm
07:19 49.2 °F /  9.6 °C 48.4 °F /  9.1 °C 29.98 in /  1015.1 hPa East 3.7 mph /  6 km/h 5.0 mph /  8 km/h 97 % 0.01 in /  0.25 mm
07:24 49.2 °F /  9.6 °C 48.4 °F /  9.1 °C 29.99 in /  1015.5 hPa ENE 0.6 mph /  1 km/h 3.5 mph /  5.6 km/h 97 % 0.01 in /  0.25 mm
07:30 49.2 °F /  9.6 °C 48.4 °F /  9.1 °C 29.99 in /  1015.5 hPa ENE 1.5 mph /  2.4 km/h 5.8 mph /  9.3 km/h 97 % 0.01 in /  0.25 mm
07:35 49.1 °F /  9.5 °C 48.3 °F /  9.1 °C 29.98 in /  1015.1 hPa ENE 2.6 mph /  4.2 km/h 7.0 mph /  11.3 km/h 97 % 0.01 in /  0.25 mm
07:36 49.1 °F /  9.5 °C 48.3 °F /  9.1 °C 29.98 in /  1015.1 hPa East 3.7 mph /  6 km/h 6.9 mph /  11.1 km/h 97 % 0.01 in /  0.25 mm
07:41 49.0 °F /  9.4 °C 48.2 °F /  9 °C 29.98 in /  1015.1 hPa NE 4.0 mph /  6.4 km/h 8.1 mph /  13 km/h 97 % 0.01 in /  0.25 mm
07:46 48.8 °F /  9.3 °C 48.0 °F /  8.9 °C 29.98 in /  1015.1 hPa ENE 3.9 mph /  6.3 km/h 6.9 mph /  11.1 km/h 97 % 0.01 in /  0.25 mm
07:51 48.6 °F /  9.2 °C 47.8 °F /  8.8 °C 29.98 in /  1015.1 hPa East 4.3 mph /  6.9 km/h 7.0 mph /  11.3 km/h 97 % 0.00 in /  0 mm
07:52 48.6 °F /  9.2 °C 47.8 °F /  8.8 °C 29.98 in /  1015.1 hPa ENE 4.6 mph /  7.4 km/h 7.0 mph /  11.3 km/h 97 % 0.00 in /  0 mm
07:57 48.5 °F /  9.2 °C 47.7 °F /  8.7 °C 29.98 in /  1015.1 hPa ENE 3.6 mph /  5.8 km/h 5.0 mph /  8 km/h 97 % 0.00 in /  0 mm
08:02 48.5 °F /  9.2 °C 47.7 °F /  8.7 °C 29.98 in /  1015.1 hPa ENE 2.7 mph /  4.3 km/h 4.6 mph /  7.4 km/h 97 % 0.00 in /  0 mm
08:07 48.5 °F /  9.2 °C 47.7 °F /  8.7 °C 29.99 in /  1015.5 hPa ENE 3.5 mph /  5.6 km/h 9.2 mph /  14.8 km/h 97 % 0.00 in /  0 mm
08:12 48.4 °F /  9.1 °C 47.6 °F /  8.7 °C 29.98 in /  1015.1 hPa ENE 4.9 mph /  7.9 km/h 8.0 mph /  12.9 km/h 97 % 0.00 in /  0 mm
08:18 48.4 °F /  9.1 °C 47.6 °F /  8.7 °C 29.99 in /  1015.5 hPa NE 5.9 mph /  9.5 km/h 10.4 mph /  16.7 km/h 97 % 0.00 in /  0 mm
08:23 48.4 °F /  9.1 °C 47.6 °F /  8.7 °C 29.99 in /  1015.5 hPa NE 4.1 mph /  6.6 km/h 6.9 mph /  11.1 km/h 97 % 0.00 in /  0 mm
08:28 48.5 °F /  9.2 °C 47.7 °F /  8.7 °C 29.99 in /  1015.5 hPa ENE 3.7 mph /  6 km/h 6.9 mph /  11.1 km/h 97 % 0.00 in /  0 mm
08:33 48.5 °F /  9.2 °C 47.7 °F /  8.7 °C 29.99 in /  1015.5 hPa ENE 2.4 mph /  3.9 km/h 4.0 mph /  6.4 km/h 97 % 0.00 in /  0 mm
08:38 48.6 °F /  9.2 °C 47.8 °F /  8.8 °C 29.99 in /  1015.5 hPa ENE 4.2 mph /  6.8 km/h 6.9 mph /  11.1 km/h 97 % 0.00 in /  0 mm
08:43 48.6 °F /  9.2 °C 47.8 °F /  8.8 °C 29.98 in /  1015.1 hPa ENE 2.9 mph /  4.7 km/h 5.8 mph /  9.3 km/h 97 % 0.00 in /  0 mm
08:48 48.8 °F /  9.3 °C 48.0 °F /  8.9 °C 29.99 in /  1015.5 hPa ENE 2.1 mph /  3.4 km/h 7.0 mph /  11.3 km/h 97 % 0.00 in /  0 mm
08:53 49.0 °F /  9.4 °C 48.2 °F /  9 °C 29.99 in /  1015.5 hPa ENE 1.8 mph /  2.9 km/h 3.5 mph /  5.6 km/h 97 % 0.00 in /  0 mm
08:58 49.1 °F /  9.5 °C 48.3 °F /  9.1 °C 29.98 in /  1015.1 hPa ENE 2.1 mph /  3.4 km/h 3.5 mph /  5.6 km/h 97 % 0.00 in /  0 mm
09:03 49.3 °F /  9.6 °C 48.5 °F /  9.2 °C 29.98 in /  1015.1 hPa East 1.8 mph /  2.9 km/h 3.0 mph /  4.8 km/h 97 % 0.00 in /  0 mm
09:08 49.5 °F /  9.7 °C 48.7 °F /  9.3 °C 29.98 in /  1015.1 hPa ENE 2.0 mph /  3.2 km/h 4.6 mph /  7.4 km/h 97 % 0.00 in /  0 mm
09:13 49.5 °F /  9.7 °C 48.7 °F /  9.3 °C 29.98 in /  1015.1 hPa ENE 2.0 mph /  3.2 km/h 3.5 mph /  5.6 km/h 97 % 0.00 in /  0 mm
09:18 49.6 °F /  9.8 °C 48.8 °F /  9.3 °C 29.98 in /  1015.1 hPa ENE 1.8 mph /  2.9 km/h 4.6 mph /  7.4 km/h 97 % 0.00 in /  0 mm
09:24 49.6 °F /  9.8 °C 48.8 °F /  9.3 °C 29.98 in /  1015.1 hPa ENE 1.3 mph /  2.1 km/h 4.6 mph /  7.4 km/h 97 % 0.00 in /  0 mm
09:29 49.7 °F /  9.8 °C 48.9 °F /  9.4 °C 29.98 in /  1015.1 hPa ENE 1.5 mph /  2.4 km/h 5.8 mph /  9.3 km/h 97 % 0.00 in /  0 mm
09:34 49.8 °F /  9.9 °C 49.0 °F /  9.4 °C 29.97 in /  1014.8 hPa East 1.0 mph /  1.6 km/h 2.3 mph /  3.7 km/h 97 % 0.00 in /  0 mm
09:39 49.8 °F /  9.9 °C 49.0 °F /  9.4 °C 29.97 in /  1014.8 hPa NE 1.4 mph /  2.3 km/h 3.5 mph /  5.6 km/h 97 % 0.00 in /  0 mm
09:44 50.0 °F /  10 °C 49.2 °F /  9.6 °C 29.97 in /  1014.8 hPa ENE 1.7 mph /  2.7 km/h 3.5 mph /  5.6 km/h 97 % 0.00 in /  0 mm
09:49 50.4 °F /  10.2 °C 49.9 °F /  9.9 °C 29.96 in /  1014.4 hPa ENE 1.4 mph /  2.3 km/h 3.5 mph /  5.6 km/h 98 % 0.00 in /  0 mm
09:54 50.5 °F /  10.3 °C 50.0 °F /  10 °C 29.97 in /  1014.8 hPa ENE 1.2 mph /  1.9 km/h 4.6 mph /  7.4 km/h 98 % 0.00 in /  0 mm
09:59 50.6 °F /  10.3 °C 49.8 °F /  9.9 °C 29.97 in /  1014.8 hPa NE 2.2 mph /  3.5 km/h 3.5 mph /  5.6 km/h 97 % 0.00 in /  0 mm
10:04 50.6 °F /  10.3 °C 49.8 °F /  9.9 °C 29.97 in /  1014.8 hPa ENE 1.9 mph /  3.1 km/h 4.6 mph /  7.4 km/h 97 % 0.00 in /  0 mm
10:09 50.6 °F /  10.3 °C 49.8 °F /  9.9 °C 29.97 in /  1014.8 hPa ENE 2.9 mph /  4.7 km/h 3.5 mph /  5.6 km/h 97 % 0.00 in /  0 mm
10:14 50.6 °F /  10.3 °C 49.8 °F /  9.9 °C 29.96 in /  1014.4 hPa ENE 1.4 mph /  2.3 km/h 3.5 mph /  5.6 km/h 97 % 0.00 in /  0 mm
10:19 50.6 °F /  10.3 °C 49.8 °F /  9.9 °C 29.96 in /  1014.4 hPa ENE 1.1 mph /  1.8 km/h 3.5 mph /  5.6 km/h 97 % 0.00 in /  0 mm
10:25 50.6 °F /  10.3 °C 49.8 °F /  9.9 °C 29.96 in /  1014.4 hPa ENE 3.2 mph /  5.1 km/h 3.5 mph /  5.6 km/h 97 % 0.00 in /  0 mm
10:30 50.7 °F /  10.4 °C 49.9 °F /  9.9 °C 29.96 in /  1014.4 hPa ENE 1.4 mph /  2.3 km/h 3.5 mph /  5.6 km/h 97 % 0.00 in /  0 mm
10:35 50.6 °F /  10.3 °C 49.8 °F /  9.9 °C 29.96 in /  1014.4 hPa ENE 0.8 mph /  1.3 km/h 2.3 mph /  3.7 km/h 97 % 0.00 in /  0 mm
10:40 50.7 °F /  10.4 °C 49.9 °F /  9.9 °C 29.96 in /  1014.4 hPa ENE 2.0 mph /  3.2 km/h 3.5 mph /  5.6 km/h 97 % 0.00 in /  0 mm
10:45 50.9 °F /  10.5 °C 50.1 °F /  10.1 °C 29.95 in /  1014.1 hPa ENE 2.6 mph /  4.2 km/h 3.5 mph /  5.6 km/h 97 % 0.00 in /  0 mm
10:50 51.0 °F /  10.6 °C 50.2 °F /  10.1 °C 29.96 in /  1014.4 hPa ENE 1.3 mph /  2.1 km/h 3.5 mph /  5.6 km/h 97 % 0.00 in /  0 mm
10:55 51.0 °F /  10.6 °C 50.2 °F /  10.1 °C 29.96 in /  1014.4 hPa NE 1.6 mph /  2.6 km/h 3.5 mph /  5.6 km/h 97 % 0.00 in /  0 mm
11:00 51.1 °F /  10.6 °C 50.3 °F /  10.2 °C 29.96 in /  1014.4 hPa ENE 0.8 mph /  1.3 km/h 2.0 mph /  3.2 km/h 97 % 0.00 in /  0 mm
11:05 51.3 °F /  10.7 °C 50.5 °F /  10.3 °C 29.95 in /  1014.1 hPa ENE 1.7 mph /  2.7 km/h 3.5 mph /  5.6 km/h 97 % 0.00 in /  0 mm
11:10 51.6 °F /  10.9 °C 50.8 °F /  10.4 °C 29.95 in /  1014.1 hPa ENE 0.9 mph /  1.4 km/h 3.5 mph /  5.6 km/h 97 % 0.00 in /  0 mm
11:15 51.9 °F /  11.1 °C 51.1 °F /  10.6 °C 29.95 in /  1014.1 hPa ENE 0.8 mph /  1.3 km/h 2.3 mph /  3.7 km/h 97 % 0.00 in /  0 mm
11:21 52.1 °F /  11.2 °C 51.3 °F /  10.7 °C 29.95 in /  1014.1 hPa ENE 2.2 mph /  3.5 km/h 3.5 mph /  5.6 km/h 97 % 0.00 in /  0 mm
11:26 52.2 °F /  11.2 °C 51.1 °F /  10.6 °C 29.95 in /  1014.1 hPa NE 2.0 mph /  3.2 km/h 6.0 mph /  9.7 km/h 96 % 0.00 in /  0 mm
11:31 52.4 °F /  11.3 °C 51.3 °F /  10.7 °C 29.95 in /  1014.1 hPa ENE 2.0 mph /  3.2 km/h 5.0 mph /  8 km/h 96 % 0.00 in /  0 mm
11:36 53.0 °F /  11.7 °C 51.9 °F /  11.1 °C 29.95 in /  1014.1 hPa ENE 1.9 mph /  3.1 km/h 3.5 mph /  5.6 km/h 96 % 0.00 in /  0 mm
11:41 53.3 °F /  11.8 °C 52.2 °F /  11.2 °C 29.95 in /  1014.1 hPa Calm   5.0 mph /  8 km/h 96 % 0.00 in /  0 mm
11:46 53.9 °F /  12.2 °C 52.5 °F /  11.4 °C 29.95 in /  1014.1 hPa NE 1.5 mph /  2.4 km/h 4.0 mph /  6.4 km/h 95 % 0.00 in /  0 mm
11:50 54.1 °F /  12.3 °C 52.4 °F /  11.3 °C 29.94 in /  1013.8 hPa ENE 2.3 mph /  3.7 km/h 3.5 mph /  5.6 km/h 94 % 0.00 in /  0 mm
11:56 54.5 °F /  12.5 °C 52.8 °F /  11.6 °C 29.94 in /  1013.8 hPa NE 2.0 mph /  3.2 km/h 5.0 mph /  8 km/h 94 % 0.00 in /  0 mm
12:01 55.1 °F /  12.8 °C 53.1 °F /  11.7 °C 29.94 in /  1013.8 hPa ENE 2.9 mph /  4.7 km/h 4.6 mph /  7.4 km/h 93 % 0.00 in /  0 mm
12:06 55.1 °F /  12.8 °C 52.5 °F /  11.4 °C 29.93 in /  1013.4 hPa ENE 2.0 mph /  3.2 km/h 7.0 mph /  11.3 km/h 91 % 0.00 in /  0 mm
12:11 55.3 °F /  12.9 °C 52.4 °F /  11.3 °C 29.93 in /  1013.4 hPa ENE 3.0 mph /  4.8 km/h 7.0 mph /  11.3 km/h 90 % 0.00 in /  0 mm
12:16 55.3 °F /  12.9 °C 52.4 °F /  11.3 °C 29.93 in /  1013.4 hPa ENE 2.0 mph /  3.2 km/h 8.0 mph /  12.9 km/h 90 % 0.00 in /  0 mm
12:21 55.5 °F /  13.1 °C 52.6 °F /  11.4 °C 29.93 in /  1013.4 hPa NE 1.2 mph /  1.9 km/h 3.5 mph /  5.6 km/h 90 % 0.00 in /  0 mm
12:26 56.0 °F /  13.3 °C 53.4 °F /  11.9 °C 29.93 in /  1013.4 hPa NE 2.0 mph /  3.2 km/h 5.0 mph /  8 km/h 91 % 0.00 in /  0 mm
12:31 56.4 °F /  13.6 °C 53.2 °F /  11.8 °C 29.93 in /  1013.4 hPa NE 3.0 mph /  4.8 km/h 7.0 mph /  11.3 km/h 89 % 0.00 in /  0 mm
12:36 56.4 °F /  13.6 °C 52.6 °F /  11.4 °C 29.93 in /  1013.4 hPa NE 5.1 mph /  8.2 km/h 7.0 mph /  11.3 km/h 87 % 0.00 in /  0 mm
12:41 56.3 °F /  13.5 °C 52.5 °F /  11.4 °C 29.92 in /  1013.1 hPa ENE 5.0 mph /  8 km/h 9.0 mph /  14.5 km/h 87 % 0.00 in /  0 mm
12:46 55.9 °F /  13.3 °C 52.1 °F /  11.2 °C 29.92 in /  1013.1 hPa ENE 3.0 mph /  4.8 km/h 9.0 mph /  14.5 km/h 87 % 0.00 in /  0 mm
12:51 55.5 °F /  13.1 °C 51.3 °F /  10.7 °C 29.92 in /  1013.1 hPa ENE 5.0 mph /  8 km/h 8.0 mph /  12.9 km/h 86 % 0.00 in /  0 mm
12:56 55.4 °F /  13 °C 51.9 °F /  11.1 °C 29.92 in /  1013.1 hPa ENE 3.0 mph /  4.8 km/h 8.0 mph /  12.9 km/h 88 % 0.00 in /  0 mm
13:01 56.1 °F /  13.4 °C 52.6 °F /  11.4 °C 29.91 in /  1012.8 hPa NE 3.0 mph /  4.8 km/h 5.8 mph /  9.3 km/h 88 % 0.00 in /  0 mm
13:06 56.5 °F /  13.6 °C 53.0 °F /  11.7 °C 29.91 in /  1012.8 hPa ENE 2.3 mph /  3.7 km/h 4.6 mph /  7.4 km/h 88 % 0.00 in /  0 mm
13:08 56.6 °F /  13.7 °C 52.8 °F /  11.6 °C 29.91 in /  1012.8 hPa East 3.0 mph /  4.8 km/h 7.0 mph /  11.3 km/h 87 % 0.00 in /  0 mm
13:13 56.5 °F /  13.6 °C 52.4 °F /  11.3 °C 29.91 in /  1012.8 hPa ENE 4.6 mph /  7.4 km/h 6.9 mph /  11.1 km/h 86 % 0.00 in /  0 mm
13:18 57.0 °F /  13.9 °C 53.2 °F /  11.8 °C 29.91 in /  1012.8 hPa ENE 4.5 mph /  7.2 km/h 7.0 mph /  11.3 km/h 87 % 0.00 in /  0 mm
13:23 57.6 °F /  14.2 °C 53.4 °F /  11.9 °C 29.90 in /  1012.4 hPa ENE 3.3 mph /  5.3 km/h 6.9 mph /  11.1 km/h 86 % 0.00 in /  0 mm
13:28 57.6 °F /  14.2 °C 52.8 °F /  11.6 °C 29.90 in /  1012.4 hPa ENE 5.7 mph /  9.2 km/h 8.1 mph /  13 km/h 84 % 0.00 in /  0 mm
13:33 57.6 °F /  14.2 °C 53.1 °F /  11.7 °C 29.90 in /  1012.4 hPa ENE 4.7 mph /  7.6 km/h 8.1 mph /  13 km/h 85 % 0.00 in /  0 mm
13:38 57.1 °F /  13.9 °C 52.3 °F /  11.3 °C 29.90 in /  1012.4 hPa ENE 5.5 mph /  8.9 km/h 6.9 mph /  11.1 km/h 84 % 0.00 in /  0 mm
13:43 57.1 °F /  13.9 °C 53.0 °F /  11.7 °C 29.90 in /  1012.4 hPa East 2.3 mph /  3.7 km/h 3.5 mph /  5.6 km/h 86 % 0.00 in /  0 mm
13:48 57.2 °F /  14 °C 52.7 °F /  11.5 °C 29.89 in /  1012.1 hPa ENE 3.5 mph /  5.6 km/h 5.0 mph /  8 km/h 85 % 0.00 in /  0 mm
13:53 57.6 °F /  14.2 °C 53.4 °F /  11.9 °C 29.89 in /  1012.1 hPa ENE 4.9 mph /  7.9 km/h 9.2 mph /  14.8 km/h 86 % 0.00 in /  0 mm
13:58 57.6 °F /  14.2 °C 53.1 °F /  11.7 °C 29.89 in /  1012.1 hPa ENE 3.4 mph /  5.5 km/h 5.0 mph /  8 km/h 85 % 0.00 in /  0 mm
14:03 57.7 °F /  14.3 °C 53.2 °F /  11.8 °C 29.88 in /  1011.7 hPa ENE 3.7 mph /  6 km/h 7.0 mph /  11.3 km/h 85 % 0.00 in /  0 mm
14:09 57.8 °F /  14.3 °C 53.3 °F /  11.8 °C 29.88 in /  1011.7 hPa ENE 4.2 mph /  6.8 km/h 8.1 mph /  13 km/h 85 % 0.00 in /  0 mm
14:14 57.9 °F /  14.4 °C 52.8 °F /  11.6 °C 29.88 in /  1011.7 hPa ENE 8.1 mph /  13 km/h 11.0 mph /  17.7 km/h 83 % 0.00 in /  0 mm
14:19 57.4 °F /  14.1 °C 52.6 °F /  11.4 °C 29.87 in /  1011.4 hPa ENE 3.3 mph /  5.3 km/h 9.2 mph /  14.8 km/h 84 % 0.00 in /  0 mm
14:24 57.7 °F /  14.3 °C 53.2 °F /  11.8 °C 29.87 in /  1011.4 hPa ENE 5.6 mph /  9 km/h 9.2 mph /  14.8 km/h 85 % 0.00 in /  0 mm
14:29 57.2 °F /  14 °C 52.4 °F /  11.3 °C 29.86 in /  1011.1 hPa ENE 6.3 mph /  10.1 km/h 9.2 mph /  14.8 km/h 84 % 0.00 in /  0 mm
14:34 57.1 °F /  13.9 °C 52.6 °F /  11.4 °C 29.87 in /  1011.4 hPa ENE 4.7 mph /  7.6 km/h 7.0 mph /  11.3 km/h 85 % 0.00 in /  0 mm
14:39 57.1 °F /  13.9 °C 53.3 °F /  11.8 °C 29.86 in /  1011.1 hPa ENE 4.6 mph /  7.4 km/h 8.1 mph /  13 km/h 87 % 0.00 in /  0 mm
14:44 57.7 °F /  14.3 °C 53.9 °F /  12.2 °C 29.86 in /  1011.1 hPa ENE 2.7 mph /  4.3 km/h 3.5 mph /  5.6 km/h 87 % 0.00 in /  0 mm
14:49 57.6 °F /  14.2 °C 53.1 °F /  11.7 °C 29.85 in /  1010.7 hPa NE 6.5 mph /  10.5 km/h 9.0 mph /  14.5 km/h 85 % 0.00 in /  0 mm
14:54 57.7 °F /  14.3 °C 53.5 °F /  11.9 °C 29.85 in /  1010.7 hPa ENE 5.0 mph /  8 km/h 8.0 mph /  12.9 km/h 86 % 0.00 in /  0 mm
15:00 57.6 °F /  14.2 °C 53.4 °F /  11.9 °C 29.85 in /  1010.7 hPa East 4.2 mph /  6.8 km/h 8.1 mph /  13 km/h 86 % 0.00 in /  0 mm
15:05 57.3 °F /  14.1 °C 52.8 °F /  11.6 °C 29.85 in /  1010.7 hPa ENE 6.7 mph /  10.8 km/h 8.1 mph /  13 km/h 85 % 0.00 in /  0 mm
15:15 57.6 °F /  14.2 °C 53.8 °F /  12.1 °C 29.84 in /  1010.4 hPa NE 4.6 mph /  7.4 km/h 8.1 mph /  13 km/h 87 % 0.00 in /  0 mm
15:20 57.9 °F /  14.4 °C 54.1 °F /  12.3 °C 29.83 in /  1010 hPa NE 6.1 mph /  9.8 km/h 8.1 mph /  13 km/h 87 % 0.00 in /  0 mm
15:25 57.9 °F /  14.4 °C 54.1 °F /  12.3 °C 29.83 in /  1010 hPa NE 4.1 mph /  6.6 km/h 6.9 mph /  11.1 km/h 87 % 0.00 in /  0 mm
15:30 58.0 °F /  14.4 °C 53.8 °F /  12.1 °C 29.83 in /  1010 hPa East 3.8 mph /  6.1 km/h 5.8 mph /  9.3 km/h 86 % 0.00 in /  0 mm
15:35 58.4 °F /  14.7 °C 54.5 °F /  12.5 °C 29.83 in /  1010 hPa East 2.3 mph /  3.7 km/h 7.0 mph /  11.3 km/h 87 % 0.00 in /  0 mm
15:40 58.7 °F /  14.8 °C 54.8 °F /  12.7 °C 29.82 in /  1009.7 hPa ENE 3.4 mph /  5.5 km/h 5.8 mph /  9.3 km/h 87 % 0.00 in /  0 mm
15:45 58.9 °F /  14.9 °C 54.7 °F /  12.6 °C 29.82 in /  1009.7 hPa NNE 3.8 mph /  6.1 km/h 5.8 mph /  9.3 km/h 86 % 0.00 in /  0 mm
15:50 59.3 °F /  15.2 °C 54.8 °F /  12.7 °C 29.82 in /  1009.7 hPa East 2.1 mph /  3.4 km/h 6.9 mph /  11.1 km/h 85 % 0.00 in /  0 mm
15:55 59.3 °F /  15.2 °C 54.8 °F /  12.7 °C 29.82 in /  1009.7 hPa North 2.8 mph /  4.5 km/h 5.8 mph /  9.3 km/h 85 % 0.00 in /  0 mm
16:01 59.2 °F /  15.1 °C 54.7 °F /  12.6 °C 29.81 in /  1009.4 hPa ENE 4.5 mph /  7.2 km/h 5.0 mph /  8 km/h 85 % 0.00 in /  0 mm
16:06 59.5 °F /  15.3 °C 55.3 °F /  12.9 °C 29.81 in /  1009.4 hPa ENE 1.4 mph /  2.3 km/h 4.0 mph /  6.4 km/h 86 % 0.00 in /  0 mm
16:11 60.0 °F /  15.6 °C 55.5 °F /  13.1 °C 29.81 in /  1009.4 hPa North 2.1 mph /  3.4 km/h 4.6 mph /  7.4 km/h 85 % 0.00 in /  0 mm
16:16 60.5 °F /  15.8 °C 56.3 °F /  13.5 °C 29.80 in /  1009 hPa North 1.1 mph /  1.8 km/h 4.0 mph /  6.4 km/h 86 % 0.00 in /  0 mm
16:21 61.2 °F /  16.2 °C 56.7 °F /  13.7 °C 29.80 in /  1009 hPa NNE 2.7 mph /  4.3 km/h 4.6 mph /  7.4 km/h 85 % 0.00 in /  0 mm
16:26 61.7 °F /  16.5 °C 56.5 °F /  13.6 °C 29.80 in /  1009 hPa NNW 3.0 mph /  4.8 km/h 4.0 mph /  6.4 km/h 83 % 0.00 in /  0 mm
16:31 62.2 °F /  16.8 °C 57.0 °F /  13.9 °C 29.79 in /  1008.7 hPa NNE 1.4 mph /  2.3 km/h 3.5 mph /  5.6 km/h 83 % 0.00 in /  0 mm
16:36 62.6 °F /  17 °C 57.0 °F /  13.9 °C 29.79 in /  1008.7 hPa North 0.8 mph /  1.3 km/h 3.5 mph /  5.6 km/h 82 % 0.00 in /  0 mm
16:41 62.9 °F /  17.2 °C 57.3 °F /  14.1 °C 29.79 in /  1008.7 hPa East 0.7 mph /  1.1 km/h 3.5 mph /  5.6 km/h 82 % 0.00 in /  0 mm
16:47 63.2 °F /  17.3 °C 57.6 °F /  14.2 °C 29.78 in /  1008.4 hPa NNE 4.1 mph /  6.6 km/h 4.1 mph /  6.6 km/h 82 % 0.00 in /  0 mm
16:52 63.8 °F /  17.7 °C 59.5 °F /  15.3 °C 29.78 in /  1008.4 hPa SSW 1.4 mph /  2.3 km/h 4.6 mph /  7.4 km/h 86 % 0.00 in /  0 mm
16:57 65.0 °F /  18.3 °C 61.7 °F /  16.5 °C 29.78 in /  1008.4 hPa WSW 0.4 mph /  0.6 km/h 4.6 mph /  7.4 km/h 89 % 0.00 in /  0 mm
17:02 66.3 °F /  19.1 °C 63.3 °F /  17.4 °C 29.77 in /  1008 hPa SSW 4.2 mph /  6.8 km/h 8.1 mph /  13 km/h 90 % 0.00 in /  0 mm
17:07 67.8 °F /  19.9 °C 63.8 °F /  17.7 °C 29.77 in /  1008 hPa South 0.5 mph /  0.8 km/h 2.3 mph /  3.7 km/h 87 % 0.00 in /  0 mm
17:17 69.7 °F /  20.9 °C 64.0 °F /  17.8 °C 29.76 in /  1007.7 hPa SSW 3.2 mph /  5.1 km/h 6.0 mph /  9.7 km/h 82 % 0.00 in /  0 mm
17:22 70.4 °F /  21.3 °C 64.3 °F /  17.9 °C 29.76 in /  1007.7 hPa SE 0.8 mph /  1.3 km/h 4.6 mph /  7.4 km/h 81 % 0.00 in /  0 mm
17:27 70.9 °F /  21.6 °C 64.4 °F /  18 °C 29.75 in /  1007.3 hPa SW 3.4 mph /  5.5 km/h 9.2 mph /  14.8 km/h 80 % 0.00 in /  0 mm
17:32 71.3 °F /  21.8 °C 64.4 °F /  18 °C 29.75 in /  1007.3 hPa SSW 5.5 mph /  8.9 km/h 9.0 mph /  14.5 km/h 79 % 0.00 in /  0 mm
17:37 71.7 °F /  22.1 °C 64.1 °F /  17.8 °C 29.75 in /  1007.3 hPa South 2.3 mph /  3.7 km/h 8.1 mph /  13 km/h 77 % 0.00 in /  0 mm
17:42 72.0 °F /  22.2 °C 64.0 °F /  17.8 °C 29.75 in /  1007.3 hPa South 5.6 mph /  9 km/h 11.5 mph /  18.5 km/h 76 % 0.00 in /  0 mm
17:47 72.1 °F /  22.3 °C 63.7 °F /  17.6 °C 29.75 in /  1007.3 hPa South 6.5 mph /  10.5 km/h 11.5 mph /  18.5 km/h 75 % 0.00 in /  0 mm
17:53 72.1 °F /  22.3 °C 63.4 °F /  17.4 °C 29.74 in /  1007 hPa SSW 3.8 mph /  6.1 km/h 13.8 mph /  22.2 km/h 74 % 0.00 in /  0 mm
17:58 72.0 °F /  22.2 °C 63.3 °F /  17.4 °C 29.74 in /  1007 hPa South 4.6 mph /  7.4 km/h 11.0 mph /  17.7 km/h 74 % 0.00 in /  0 mm
18:03 71.8 °F /  22.1 °C 63.1 °F /  17.3 °C 29.74 in /  1007 hPa SW 3.6 mph /  5.8 km/h 6.9 mph /  11.1 km/h 74 % 0.00 in /  0 mm
18:08 71.7 °F /  22.1 °C 63.4 °F /  17.4 °C 29.74 in /  1007 hPa SW 4.9 mph /  7.9 km/h 9.2 mph /  14.8 km/h 75 % 0.00 in /  0 mm
18:13 71.5 °F /  21.9 °C 63.2 °F /  17.3 °C 29.74 in /  1007 hPa South 3.3 mph /  5.3 km/h 6.9 mph /  11.1 km/h 75 % 0.00 in /  0 mm
18:18 71.3 °F /  21.8 °C 63.0 °F /  17.2 °C 29.73 in /  1006.7 hPa SW 4.3 mph /  6.9 km/h 8.1 mph /  13 km/h 75 % 0.00 in /  0 mm
18:23 71.2 °F /  21.8 °C 62.9 °F /  17.2 °C 29.73 in /  1006.7 hPa South 4.7 mph /  7.6 km/h 12.7 mph /  20.4 km/h 75 % 0.00 in /  0 mm
18:28 70.9 °F /  21.6 °C 62.6 °F /  17 °C 29.72 in /  1006.3 hPa South 4.8 mph /  7.7 km/h 9.2 mph /  14.8 km/h 75 % 0.00 in /  0 mm
18:33 70.6 °F /  21.4 °C 62.7 °F /  17.1 °C 29.72 in /  1006.3 hPa SE 4.6 mph /  7.4 km/h 8.1 mph /  13 km/h 76 % 0.00 in /  0 mm
18:38 70.3 °F /  21.3 °C 62.7 °F /  17.1 °C 29.72 in /  1006.3 hPa SSW 3.8 mph /  6.1 km/h 6.9 mph /  11.1 km/h 77 % 0.00 in /  0 mm
18:43 70.0 °F /  21.1 °C 62.5 °F /  16.9 °C 29.71 in /  1006 hPa SSE 3.9 mph /  6.3 km/h 8.1 mph /  13 km/h 77 % 0.00 in /  0 mm
18:49 69.7 °F /  20.9 °C 62.2 °F /  16.8 °C 29.71 in /  1006 hPa South 3.1 mph /  5 km/h 11.5 mph /  18.5 km/h 77 % 0.00 in /  0 mm
18:54 69.4 °F /  20.8 °C 61.9 °F /  16.6 °C 29.71 in /  1006 hPa SSW 1.7 mph /  2.7 km/h 5.8 mph /  9.3 km/h 77 % 0.00 in /  0 mm
18:59 69.2 °F /  20.7 °C 62.0 °F /  16.7 °C 29.71 in /  1006 hPa South 3.7 mph /  6 km/h 6.9 mph /  11.1 km/h 78 % 0.00 in /  0 mm
19:04 68.9 °F /  20.5 °C 61.8 °F /  16.6 °C 29.70 in /  1005.6 hPa SW 5.6 mph /  9 km/h 8.1 mph /  13 km/h 78 % 0.00 in /  0 mm
19:09 68.7 °F /  20.4 °C 61.9 °F /  16.6 °C 29.70 in /  1005.6 hPa South 3.4 mph /  5.5 km/h 5.8 mph /  9.3 km/h 79 % 0.00 in /  0 mm
19:14 68.5 °F /  20.3 °C 61.7 °F /  16.5 °C 29.70 in /  1005.6 hPa South 1.8 mph /  2.9 km/h 7.0 mph /  11.3 km/h 79 % 0.00 in /  0 mm
19:19 68.3 °F /  20.2 °C 61.5 °F /  16.4 °C 29.70 in /  1005.6 hPa South 2.9 mph /  4.7 km/h 4.6 mph /  7.4 km/h 79 % 0.00 in /  0 mm
19:24 68.0 °F /  20 °C 61.6 °F /  16.4 °C 29.69 in /  1005.3 hPa South 4.7 mph /  7.6 km/h 11.5 mph /  18.5 km/h 80 % 0.00 in /  0 mm
19:29 67.8 °F /  19.9 °C 61.4 °F /  16.3 °C 29.70 in /  1005.6 hPa South 3.9 mph /  6.3 km/h 6.9 mph /  11.1 km/h 80 % 0.00 in /  0 mm
19:34 67.8 °F /  19.9 °C 61.4 °F /  16.3 °C 29.70 in /  1005.6 hPa South 5.5 mph /  8.9 km/h 15.0 mph /  24.1 km/h 80 % 0.00 in /  0 mm
19:39 67.6 °F /  19.8 °C 61.2 °F /  16.2 °C 29.70 in /  1005.6 hPa SSW 2.4 mph /  3.9 km/h 8.1 mph /  13 km/h 80 % 0.00 in /  0 mm
19:44 67.5 °F /  19.7 °C 61.1 °F /  16.2 °C 29.69 in /  1005.3 hPa SSW 5.2 mph /  8.4 km/h 11.5 mph /  18.5 km/h 80 % 0.00 in /  0 mm
19:49 67.4 °F /  19.7 °C 61.0 °F /  16.1 °C 29.69 in /  1005.3 hPa SSW 3.0 mph /  4.8 km/h 5.0 mph /  8 km/h 80 % 0.00 in /  0 mm
19:54 67.4 °F /  19.7 °C 61.0 °F /  16.1 °C 29.69 in /  1005.3 hPa South 5.9 mph /  9.5 km/h 10.4 mph /  16.7 km/h 80 % 0.00 in /  0 mm
20:00 67.3 °F /  19.6 °C 61.3 °F /  16.3 °C 29.69 in /  1005.3 hPa SSW 5.6 mph /  9 km/h 14.0 mph /  22.5 km/h 81 % 0.00 in /  0 mm
20:05 67.3 °F /  19.6 °C 61.3 °F /  16.3 °C 29.70 in /  1005.6 hPa South 4.8 mph /  7.7 km/h 8.1 mph /  13 km/h 81 % 0.00 in /  0 mm
20:10 67.3 °F /  19.6 °C 61.3 °F /  16.3 °C 29.70 in /  1005.6 hPa SSW 5.6 mph /  9 km/h 15.0 mph /  24.1 km/h 81 % 0.00 in /  0 mm
20:15 67.2 °F /  19.6 °C 61.2 °F /  16.2 °C 29.70 in /  1005.6 hPa SW 4.6 mph /  7.4 km/h 11.5 mph /  18.5 km/h 81 % 0.00 in /  0 mm
20:20 67.2 °F /  19.6 °C 61.5 °F /  16.4 °C 29.70 in /  1005.6 hPa South 3.8 mph /  6.1 km/h 9.2 mph /  14.8 km/h 82 % 0.00 in /  0 mm
20:25 67.1 °F /  19.5 °C 61.4 °F /  16.3 °C 29.70 in /  1005.6 hPa South 7.5 mph /  12.1 km/h 12.7 mph /  20.4 km/h 82 % 0.00 in /  0 mm
20:30 67.0 °F /  19.4 °C 61.3 °F /  16.3 °C 29.70 in /  1005.6 hPa South 6.2 mph /  10 km/h 10.0 mph /  16.1 km/h 82 % 0.00 in /  0 mm
20:35 67.0 °F /  19.4 °C 61.3 °F /  16.3 °C 29.71 in /  1006 hPa South 7.1 mph /  11.4 km/h 10.4 mph /  16.7 km/h 82 % 0.00 in /  0 mm
20:40 66.8 °F /  19.3 °C 61.1 °F /  16.2 °C 29.71 in /  1006 hPa South 2.8 mph /  4.5 km/h 5.8 mph /  9.3 km/h 82 % 0.00 in /  0 mm
20:45 66.7 °F /  19.3 °C 61.0 °F /  16.1 °C 29.71 in /  1006 hPa South 5.2 mph /  8.4 km/h 6.9 mph /  11.1 km/h 82 % 0.00 in /  0 mm
20:50 66.5 °F /  19.2 °C 61.2 °F /  16.2 °C 29.70 in /  1005.6 hPa SSW 5.5 mph /  8.9 km/h 9.2 mph /  14.8 km/h 83 % 0.00 in /  0 mm
20:55 66.2 °F /  19 °C 60.9 °F /  16.1 °C 29.70 in /  1005.6 hPa South 4.7 mph /  7.6 km/h 10.4 mph /  16.7 km/h 83 % 0.00 in /  0 mm
21:00 66.0 °F /  18.9 °C 61.0 °F /  16.1 °C 29.70 in /  1005.6 hPa South 4.6 mph /  7.4 km/h 10.4 mph /  16.7 km/h 84 % 0.00 in /  0 mm
21:05 65.7 °F /  18.7 °C 60.7 °F /  15.9 °C 29.70 in /  1005.6 hPa South 5.8 mph /  9.3 km/h 11.0 mph /  17.7 km/h 84 % 0.00 in /  0 mm
21:11 65.6 °F /  18.7 °C 61.0 °F /  16.1 °C 29.70 in /  1005.6 hPa SSW 4.6 mph /  7.4 km/h 12.7 mph /  20.4 km/h 85 % 0.00 in /  0 mm
21:16 65.4 °F /  18.6 °C 61.1 °F /  16.2 °C 29.70 in /  1005.6 hPa SSW 6.0 mph /  9.7 km/h 13.0 mph /  20.9 km/h 86 % 0.00 in /  0 mm
21:21 65.2 °F /  18.4 °C 60.9 °F /  16.1 °C 29.69 in /  1005.3 hPa SSW 3.0 mph /  4.8 km/h 12.0 mph /  19.3 km/h 86 % 0.00 in /  0 mm
21:26 65.0 °F /  18.3 °C 61.0 °F /  16.1 °C 29.69 in /  1005.3 hPa SSW 6.0 mph /  9.7 km/h 12.0 mph /  19.3 km/h 87 % 0.00 in /  0 mm
21:31 64.8 °F /  18.2 °C 60.9 °F /  16.1 °C 29.68 in /  1005 hPa South 6.0 mph /  9.7 km/h 12.0 mph /  19.3 km/h 87 % 0.00 in /  0 mm
21:36 64.8 °F /  18.2 °C 60.8 °F /  16 °C 29.68 in /  1005 hPa SE 4.4 mph /  7.1 km/h 6.9 mph /  11.1 km/h 87 % 0.00 in /  0 mm
21:41 64.7 °F /  18.2 °C 61.1 °F /  16.2 °C 29.68 in /  1005 hPa SSW 6.0 mph /  9.7 km/h 17.0 mph /  27.4 km/h 88 % 0.00 in /  0 mm
21:46 64.7 °F /  18.2 °C 61.1 °F /  16.2 °C 29.69 in /  1005.3 hPa SSW 6.0 mph /  9.7 km/h 17.0 mph /  27.4 km/h 88 % 0.00 in /  0 mm
21:51 64.7 °F /  18.2 °C 61.4 °F /  16.3 °C 29.69 in /  1005.3 hPa SSW 6.0 mph /  9.7 km/h 15.0 mph /  24.1 km/h 89 % 0.00 in /  0 mm
21:56 64.7 °F /  18.2 °C 61.4 °F /  16.3 °C 29.69 in /  1005.3 hPa South 5.2 mph /  8.4 km/h 11.5 mph /  18.5 km/h 89 % 0.00 in /  0 mm
22:01 64.7 °F /  18.2 °C 61.4 °F /  16.3 °C 29.68 in /  1005 hPa SW 4.3 mph /  6.9 km/h 9.2 mph /  14.8 km/h 89 % 0.00 in /  0 mm
22:06 64.8 °F /  18.2 °C 61.5 °F /  16.4 °C 29.68 in /  1005 hPa South 5.2 mph /  8.4 km/h 13.8 mph /  22.2 km/h 89 % 0.00 in /  0 mm
22:11 64.8 °F /  18.2 °C 61.5 °F /  16.4 °C 29.68 in /  1005 hPa SSW 5.0 mph /  8 km/h 10.4 mph /  16.7 km/h 89 % 0.00 in /  0 mm
22:16 64.8 °F /  18.2 °C 61.5 °F /  16.4 °C 29.68 in /  1005 hPa SSE 5.3 mph /  8.5 km/h 11.5 mph /  18.5 km/h 89 % 0.00 in /  0 mm
22:21 64.8 °F /  18.2 °C 61.5 °F /  16.4 °C 29.67 in /  1004.6 hPa SSE 7.3 mph /  11.7 km/h 11.5 mph /  18.5 km/h 89 % 0.00 in /  0 mm
22:26 64.7 °F /  18.2 °C 61.4 °F /  16.3 °C 29.67 in /  1004.6 hPa South 3.3 mph /  5.3 km/h 9.2 mph /  14.8 km/h 89 % 0.00 in /  0 mm
22:31 64.7 °F /  18.2 °C 61.7 °F /  16.5 °C 29.65 in /  1003.9 hPa South 6.9 mph /  11.1 km/h 11.5 mph /  18.5 km/h 90 % 0.00 in /  0 mm
22:36 64.6 °F /  18.1 °C 61.6 °F /  16.4 °C 29.65 in /  1003.9 hPa ENE 6.9 mph /  11.1 km/h 15.0 mph /  24.1 km/h 90 % 0.00 in /  0 mm
22:41 64.5 °F /  18.1 °C 61.5 °F /  16.4 °C 29.65 in /  1003.9 hPa SW 6.5 mph /  10.5 km/h 13.0 mph /  20.9 km/h 90 % 0.00 in /  0 mm
22:46 64.5 °F /  18.1 °C 61.2 °F /  16.2 °C 29.65 in /  1003.9 hPa South 9.4 mph /  15.1 km/h 18.4 mph /  29.6 km/h 89 % 0.00 in /  0 mm
22:51 64.5 °F /  18.1 °C 61.2 °F /  16.2 °C 29.65 in /  1003.9 hPa SSW 5.8 mph /  9.3 km/h 16.1 mph /  25.9 km/h 89 % 0.00 in /  0 mm
22:56 64.5 °F /  18.1 °C 61.5 °F /  16.4 °C 29.65 in /  1003.9 hPa South 5.0 mph /  8 km/h 6.9 mph /  11.1 km/h 90 % 0.00 in /  0 mm
23:02 64.5 °F /  18.1 °C 61.5 °F /  16.4 °C 29.65 in /  1003.9 hPa SW 7.1 mph /  11.4 km/h 13.8 mph /  22.2 km/h 90 % 0.00 in /  0 mm
23:07 64.5 °F /  18.1 °C 61.5 °F /  16.4 °C 29.65 in /  1003.9 hPa South 3.5 mph /  5.6 km/h 5.0 mph /  8 km/h 90 % 0.00 in /  0 mm
23:12 64.6 °F /  18.1 °C 61.6 °F /  16.4 °C 29.65 in /  1003.9 hPa SSW 5.5 mph /  8.9 km/h 11.5 mph /  18.5 km/h 90 % 0.00 in /  0 mm
23:17 64.5 °F /  18.1 °C 61.5 °F /  16.4 °C 29.64 in /  1003.6 hPa SW 5.5 mph /  8.9 km/h 11.5 mph /  18.5 km/h 90 % 0.00 in /  0 mm
23:22 64.5 °F /  18.1 °C 61.5 °F /  16.4 °C 29.65 in /  1003.9 hPa SSW 8.7 mph /  14 km/h 20.0 mph /  32.2 km/h 90 % 0.00 in /  0 mm
23:27 64.5 °F /  18.1 °C 61.5 °F /  16.4 °C 29.65 in /  1003.9 hPa South 7.4 mph /  11.9 km/h 12.7 mph /  20.4 km/h 90 % 0.00 in /  0 mm
23:32 64.5 °F /  18.1 °C 61.5 °F /  16.4 °C 29.64 in /  1003.6 hPa SSW 9.6 mph /  15.4 km/h 13.8 mph /  22.2 km/h 90 % 0.00 in /  0 mm
23:37 64.4 °F /  18 °C 61.4 °F /  16.3 °C 29.64 in /  1003.6 hPa South 6.5 mph /  10.5 km/h 10.4 mph /  16.7 km/h 90 % 0.00 in /  0 mm
23:42 64.3 °F /  17.9 °C 61.6 °F /  16.4 °C 29.64 in /  1003.6 hPa SSW 9.4 mph /  15.1 km/h 15.0 mph /  24.1 km/h 91 % 0.00 in /  0 mm
23:48 64.3 °F /  17.9 °C 61.6 °F /  16.4 °C 29.64 in /  1003.6 hPa South 7.5 mph /  12.1 km/h 12.7 mph /  20.4 km/h 91 % 0.00 in /  0 mm
23:53 64.2 °F /  17.9 °C 61.2 °F /  16.2 °C 29.63 in /  1003.3 hPa SSW 5.6 mph /  9 km/h 16.1 mph /  25.9 km/h 90 % 0.00 in /  0 mm
23:58 64.1 °F /  17.8 °C 61.1 °F /  16.2 °C 29.63 in /  1003.3 hPa SSW 7.7 mph /  12.4 km/h 12.7 mph /  20.4 km/h 90 % 0.00 in /  0 mm
Crab Meadow Weather
Compliments of Weather Underground - 3 mb

Script developed by  Jim McMurry - jmcmurry@mwt.net Adapted for the template by  Wim van der Kuil - Leuven-Template.eu

Weather Terms: Waterspout - In general, a tornado occurring over water. Specifically, it refers to a small, relatively weak rotating column of air over water beneath a towering cumulus or cumulonimbus cloud. They occasionally occur over Lake Michigan in late summer with unusually cold air aloft.